Time;durP1;ratioP1;P1;durP2;ratioP2;P2;SDS_P1;SDS_P2;PMS_P1;PMS_P2;Temp;Humidity;BMP_temperature;BMP_pressure;BME280_temperature;BME280_humidity;BME280_pressure;Samples;Min_cycle;Max_cycle;Signal;HPM_P1;HPM_P2
2023/06/19 00:02:08;;;;;;;4.35;3.97;;;;;;;18.14;67.12;94991.19;5117234;28;20206;-68
2023/06/19 00:04:38;;;;;;;5.13;4.25;;;;;;;18.11;66.67;94992.78;5116892;28;20195;-68
2023/06/19 00:07:06;;;;;;;4.97;4.35;;;;;;;18.11;67.00;94989.19;5116957;28;20195;-68
2023/06/19 00:09:34;;;;;;;4.38;4.03;;;;;;;18.10;67.07;94996.00;5116700;28;20242;-68
2023/06/19 00:12:04;;;;;;;4.60;4.20;;;;;;;18.09;66.75;94994.41;5117667;28;20195;-68
2023/06/19 00:14:32;;;;;;;5.05;4.13;;;;;;;18.06;66.96;94993.22;5117703;28;20227;-68
2023/06/19 00:17:01;;;;;;;4.18;3.88;;;;;;;18.06;67.31;94989.63;5117787;28;20188;-68
2023/06/19 00:19:35;;;;;;;4.55;3.95;;;;;;;18.07;67.48;94985.63;5117529;28;20207;-68
2023/06/19 00:22:05;;;;;;;4.43;4.13;;;;;;;18.06;67.49;94986.84;5116755;28;20307;-68
2023/06/19 00:24:33;;;;;;;4.80;4.40;;;;;;;18.04;66.99;94987.22;5116948;28;20215;-68
2023/06/19 00:27:03;;;;;;;4.57;4.18;;;;;;;18.03;67.26;94983.63;5117122;28;20207;-68
2023/06/19 00:29:31;;;;;;;4.13;3.83;;;;;;;18.02;66.65;94979.25;5115941;28;20257;-68
2023/06/19 00:32:00;;;;;;;4.72;4.32;;;;;;;18.03;67.34;94983.63;5116058;28;20286;-68
2023/06/19 00:34:30;;;;;;;4.03;3.80;;;;;;;18.01;67.40;94983.25;5117404;28;20618;-68
2023/06/19 00:36:59;;;;;;;4.65;4.22;;;;;;;18.01;68.35;94988.03;5117159;28;20183;-68
2023/06/19 00:39:31;;;;;;;4.20;3.90;;;;;;;17.99;69.55;94980.06;5116169;28;20212;-68
2023/06/19 00:41:58;;;;;;;4.47;4.10;;;;;;;17.97;69.82;94982.47;5117495;28;20230;-68
2023/06/19 00:44:25;;;;;;;5.07;3.63;;;;;;;17.95;68.14;94975.69;5117106;28;20203;-68
2023/06/19 00:46:58;;;;;;;4.82;4.40;;;;;;;17.94;68.40;94977.69;5117061;28;20244;-68
2023/06/19 00:49:26;;;;;;;5.32;4.15;;;;;;;17.95;67.73;94976.50;5116903;28;20176;-68
2023/06/19 00:51:54;;;;;;;4.97;4.25;;;;;;;17.94;67.21;94972.13;5115631;28;20210;-68
2023/06/19 00:54:22;;;;;;;4.60;4.10;;;;;;;17.95;66.86;94961.75;5116198;28;20248;-68
2023/06/19 00:56:53;;;;;;;4.40;4.10;;;;;;;17.96;66.55;94963.34;5115787;28;20207;-68
2023/06/19 00:59:22;;;;;;;4.55;4.13;;;;;;;17.95;66.24;94954.16;5115393;28;20220;-68
2023/06/19 01:01:49;;;;;;;4.57;4.18;;;;;;;17.96;66.16;94949.38;5116650;28;20268;-68
2023/06/19 01:04:15;;;;;;;4.50;4.10;;;;;;;17.94;65.85;94947.00;5115699;28;20210;-68
2023/06/19 01:06:48;;;;;;;4.97;4.47;;;;;;;17.95;66.15;94954.16;5116718;28;20195;-68
2023/06/19 01:09:18;;;;;;;5.57;4.13;;;;;;;17.93;66.12;94944.59;5116484;28;20184;-68
2023/06/19 01:11:49;;;;;;;4.50;4.10;;;;;;;17.89;66.05;94941.81;5116484;28;20199;-68
2023/06/19 01:14:20;;;;;;;4.65;4.25;;;;;;;17.88;65.74;94945.81;5115864;28;20212;-68
2023/06/19 01:16:48;;;;;;;4.80;4.40;;;;;;;17.88;65.48;94942.25;5115663;28;20628;-68
2023/06/19 01:19:20;;;;;;;4.03;3.63;;;;;;;17.87;65.50;94940.66;5115455;28;20215;-68
2023/06/19 01:21:48;;;;;;;3.97;3.67;;;;;;;17.86;65.73;94941.84;5115977;28;20226;-68
2023/06/19 01:24:17;;;;;;;4.43;3.90;;;;;;;17.85;65.35;94940.25;5116305;28;20184;-68
2023/06/19 01:26:46;;;;;;;4.60;4.20;;;;;;;17.84;65.26;94935.88;5116129;28;20203;-68
2023/06/19 01:29:15;;;;;;;4.43;4.03;;;;;;;17.81;65.50;94943.06;5114981;28;20274;-67
2023/06/19 01:31:53;;;;;;;4.50;4.15;;;;;;;17.79;65.42;94940.69;5115649;28;20184;-68
2023/06/19 01:34:23;;;;;;;4.47;4.07;;;;;;;17.78;65.35;94936.28;5115045;28;20195;-68
2023/06/19 01:36:52;;;;;;;4.32;4.03;;;;;;;17.79;65.46;94940.69;5115339;28;20203;-68
2023/06/19 01:39:22;;;;;;;4.22;3.83;;;;;;;17.77;65.53;94948.63;5116093;28;20207;-67
2023/06/19 01:41:50;;;;;;;4.38;4.07;;;;;;;17.76;65.46;94957.41;5115112;28;20207;-67
2023/06/19 01:44:18;;;;;;;4.47;4.07;;;;;;;17.73;66.11;94963.78;5115666;28;20184;-68
2023/06/19 01:46:48;;;;;;;4.50;4.10;;;;;;;17.66;66.42;94944.25;5114715;28;20196;-68
2023/06/19 01:49:16;;;;;;;5.03;4.57;;;;;;;17.65;67.39;94956.63;5114840;28;20639;-68
2023/06/19 01:51:45;;;;;;;4.90;4.40;;;;;;;17.50;69.53;94959.44;5114609;28;20286;-67
2023/06/19 01:54:13;;;;;;;4.95;4.32;;;;;;;17.36;70.41;94959.44;5115224;28;20210;-68
2023/06/19 01:56:42;;;;;;;5.22;4.55;;;;;;;17.29;71.29;94956.66;5115099;28;20195;-68
2023/06/19 01:59:11;;;;;;;4.65;4.25;;;;;;;17.25;71.47;94953.88;5115727;28;20196;-68
2023/06/19 02:01:38;;;;;;;4.40;4.00;;;;;;;17.22;71.29;94963.03;5115727;28;20203;-68
2023/06/19 02:04:07;;;;;;;4.47;4.07;;;;;;;17.21;70.72;94964.22;5115667;28;20654;-68
2023/06/19 02:06:34;;;;;;;4.32;3.97;;;;;;;17.19;71.66;94972.19;5115183;28;20214;-68
2023/06/19 02:09:02;;;;;;;4.93;4.40;;;;;;;17.17;71.35;94968.19;5115038;28;20191;-67
2023/06/19 02:11:30;;;;;;;4.25;3.95;;;;;;;17.14;71.53;94966.19;5114857;28;20195;-68
2023/06/19 02:13:59;;;;;;;5.00;4.60;;;;;;;17.12;71.62;94963.81;5115612;28;20206;-68
2023/06/19 02:16:27;;;;;;;4.88;4.45;;;;;;;17.10;71.77;94974.53;5115385;28;20199;-69
2023/06/19 02:18:58;;;;;;;5.00;4.60;;;;;;;17.11;72.44;94978.16;5114810;28;20583;-69
2023/06/19 02:21:28;;;;;;;5.15;4.75;;;;;;;17.08;71.88;94979.75;5114364;28;20195;-69
2023/06/19 02:23:58;;;;;;;6.65;5.20;;;;;;;17.07;72.64;94978.16;5115125;28;20264;-68
2023/06/19 02:26:29;;;;;;;5.93;5.43;;;;;;;17.06;73.41;94979.31;5115388;28;20206;-68
2023/06/19 02:28:58;;;;;;;5.35;4.95;;;;;;;17.01;73.19;94986.09;5115383;28;20554;-68
2023/06/19 02:31:31;;;;;;;5.53;4.60;;;;;;;16.99;73.69;94982.09;5114607;28;20191;-68
2023/06/19 02:33:59;;;;;;;6.25;4.78;;;;;;;16.92;73.40;94984.88;5114828;28;20276;-68
2023/06/19 02:36:29;;;;;;;4.93;4.45;;;;;;;16.88;72.61;94984.09;5115407;28;20191;-68
2023/06/19 02:38:57;;;;;;;5.20;4.80;;;;;;;16.87;73.54;94985.28;5114592;28;20272;-68
2023/06/19 02:41:25;;;;;;;6.70;4.45;;;;;;;16.83;74.65;94983.28;5115287;28;20196;-68
2023/06/19 02:43:53;;;;;;;5.50;4.60;;;;;;;16.81;74.79;94987.66;5115458;28;20191;-68
2023/06/19 02:46:20;;;;;;;5.18;4.68;;;;;;;16.79;74.72;94992.84;5114157;28;20234;-68
2023/06/19 02:48:48;;;;;;;5.28;4.50;;;;;;;16.74;75.53;94990.41;5115049;28;20203;-68
2023/06/19 02:51:16;;;;;;;5.28;4.80;;;;;;;16.68;75.73;94990.00;5114975;28;20183;-68
2023/06/19 02:53:44;;;;;;;5.88;4.78;;;;;;;16.64;76.40;94988.41;5115054;28;20192;-68
2023/06/19 02:56:12;;;;;;;5.25;4.75;;;;;;;16.58;77.03;94985.19;5114582;28;20234;-68
2023/06/19 02:58:41;;;;;;;5.28;4.78;;;;;;;16.52;77.33;94987.56;5114585;28;20240;-68
2023/06/19 03:01:09;;;;;;;6.53;5.05;;;;;;;16.49;77.25;94993.13;5113731;28;20203;-68
2023/06/19 03:03:38;;;;;;;5.93;5.32;;;;;;;16.45;77.41;94993.13;5115139;28;20192;-69
2023/06/19 03:06:08;;;;;;;7.30;5.28;;;;;;;16.41;77.79;95000.63;5114614;28;20199;-68
2023/06/19 03:08:36;;;;;;;5.55;5.05;;;;;;;16.40;77.51;95001.03;5114306;28;20207;-68
2023/06/19 03:11:04;;;;;;;7.40;5.53;;;;;;;16.33;77.21;94991.47;5115217;28;20206;-68
2023/06/19 03:13:46;;;;;;;6.22;5.30;;;;;;;16.26;77.87;94999.78;5115003;28;20241;-68
2023/06/19 03:16:15;;;;;;;6.43;5.60;;;;;;;16.24;77.47;94996.59;5115177;28;20249;-68
2023/06/19 03:18:44;;;;;;;6.28;5.70;;;;;;;16.25;78.26;94998.19;5117350;28;20250;-68
2023/06/19 03:21:14;;;;;;;6.75;5.25;;;;;;;16.24;78.00;94996.59;5118000;28;20200;-68
2023/06/19 03:23:42;;;;;;;6.03;5.47;;;;;;;16.24;77.33;94999.38;5117494;28;20218;-68
2023/06/19 03:26:10;;;;;;;5.80;5.00;;;;;;;16.22;77.35;94990.63;5117838;28;20264;-68
2023/06/19 03:28:38;;;;;;;5.57;5.15;;;;;;;16.20;77.55;94990.22;5117548;28;20238;-68
2023/06/19 03:31:06;;;;;;;6.88;5.20;;;;;;;16.21;77.65;94999.38;5118602;28;20192;-68
2023/06/19 03:33:34;;;;;;;5.60;4.90;;;;;;;16.22;77.23;94998.97;5117574;28;20192;-68
2023/06/19 03:36:03;;;;;;;9.57;5.97;;;;;;;16.31;76.83;94995.84;5117259;28;20195;-68
2023/06/19 03:38:36;;;;;;;5.28;4.78;;;;;;;16.35;76.57;94994.66;5117331;28;20203;-68
2023/06/19 03:41:04;;;;;;;5.50;5.00;;;;;;;16.38;76.90;94993.09;5118402;28;20264;-68
2023/06/19 03:43:34;;;;;;;6.32;5.10;;;;;;;16.34;78.03;94993.06;5117352;28;20206;-68
2023/06/19 03:46:01;;;;;;;6.05;5.20;;;;;;;16.30;78.54;94997.84;5117377;28;20203;-68
2023/06/19 03:48:29;;;;;;;6.88;5.55;;;;;;;16.26;79.61;95004.56;5117997;28;20623;-68
2023/06/19 03:50:58;;;;;;;5.93;5.32;;;;;;;16.21;80.06;95002.94;5118338;28;20214;-68
2023/06/19 03:53:27;;;;;;;7.50;5.50;;;;;;;16.20;80.34;94995.00;5117250;28;20199;-68
2023/06/19 03:55:57;;;;;;;7.68;5.93;;;;;;;16.19;80.40;94999.75;5118742;28;20195;-68
2023/06/19 03:58:25;;;;;;;7.90;5.75;;;;;;;16.18;80.13;94998.16;5117958;28;20188;-68
2023/06/19 04:00:54;;;;;;;6.95;5.57;;;;;;;16.19;80.85;95001.75;5116940;28;20264;-68
2023/06/19 04:03:22;;;;;;;10.50;6.65;;;;;;;16.17;80.92;94993.78;5117091;28;20199;-68
2023/06/19 04:05:52;;;;;;;7.40;6.28;;;;;;;16.18;80.88;94997.38;5117659;28;20676;-66
2023/06/19 04:08:21;;;;;;;11.05;6.93;;;;;;;16.17;81.11;94996.56;5117524;28;20191;-66
2023/06/19 04:10:47;;;;;;;7.78;6.20;;;;;;;16.16;82.03;94991.38;5117859;28;20256;-69
2023/06/19 04:13:17;;;;;;;6.85;5.45;;;;;;;16.18;81.41;94995.38;5116335;28;20208;-68
2023/06/19 04:15:45;;;;;;;6.82;6.13;;;;;;;16.20;80.79;94998.59;5117897;28;20188;-67
2023/06/19 04:18:13;;;;;;;6.78;6.07;;;;;;;16.28;80.63;94991.84;5117449;28;20175;-69
2023/06/19 04:20:41;;;;;;;5.40;4.90;;;;;;;16.34;79.36;94990.28;5117585;28;20235;-69
2023/06/19 04:23:08;;;;;;;5.70;5.20;;;;;;;16.44;76.85;94985.94;5117365;28;20580;-69
2023/06/19 04:25:36;;;;;;;5.75;5.25;;;;;;;16.57;76.87;94989.16;5116487;28;20199;-68
2023/06/19 04:28:03;;;;;;;5.75;5.25;;;;;;;16.64;75.14;95000.31;5117181;28;20195;-68
2023/06/19 04:30:33;;;;;;;5.72;5.10;;;;;;;16.70;74.47;94987.59;5075100;28;20233;-68
2023/06/19 04:33:01;;;;;;;5.63;5.13;;;;;;;16.77;74.44;94982.06;5075677;28;20200;-68
2023/06/19 04:35:29;;;;;;;6.30;5.70;;;;;;;16.82;74.48;94990.06;5075407;28;20204;-68
2023/06/19 04:38:01;;;;;;;6.25;5.57;;;;;;;16.88;73.81;94984.88;5075712;28;20262;-68
2023/06/19 04:40:29;;;;;;;5.85;5.35;;;;;;;16.95;73.10;94987.66;5075652;28;20850;-68
2023/06/19 04:42:59;;;;;;;6.88;5.15;;;;;;;17.26;72.78;94982.53;5076418;28;20554;-68
2023/06/19 04:45:27;;;;;;;6.47;5.50;;;;;;;18.02;69.17;94981.25;5076338;28;20181;-68
2023/06/19 04:47:57;;;;;;;7.95;5.97;;;;;;;17.74;69.10;94980.09;5076099;28;20243;-68
2023/06/19 04:50:25;;;;;;;5.45;4.95;;;;;;;17.51;69.74;94974.97;5075597;28;20196;-68
2023/06/19 04:52:53;;;;;;;5.20;4.70;;;;;;;17.40;70.00;94978.97;5076304;28;20185;-68
2023/06/19 04:55:21;;;;;;;5.97;5.47;;;;;;;17.36;70.02;94972.56;5075520;28;20219;-68
2023/06/19 04:57:49;;;;;;;5.80;5.22;;;;;;;17.32;70.97;94972.59;5075154;28;20209;-69
2023/06/19 05:00:19;;;;;;;6.20;4.82;;;;;;;17.27;71.54;94981.34;5076010;28;20224;-68
2023/06/19 05:02:47;;;;;;;5.72;5.10;;;;;;;17.28;71.42;94972.59;5075108;28;20197;-69
2023/06/19 05:05:17;;;;;;;5.53;5.03;;;;;;;17.29;72.02;94976.97;5075929;28;20196;-69
2023/06/19 05:07:46;;;;;;;5.25;4.75;;;;;;;17.29;72.04;94976.97;5076207;28;20192;-69
2023/06/19 05:10:14;;;;;;;5.07;4.68;;;;;;;17.31;71.55;94976.53;5075444;28;20193;-69
2023/06/19 05:12:42;;;;;;;4.70;4.30;;;;;;;17.31;70.94;94977.34;5075652;28;20185;-69
2023/06/19 05:15:13;;;;;;;5.15;4.65;;;;;;;17.35;71.13;94974.56;5075088;28;20220;-69
2023/06/19 05:17:41;;;;;;;4.97;4.57;;;;;;;17.38;71.11;94978.53;5075748;28;20193;-69
2023/06/19 05:20:11;;;;;;;5.70;4.63;;;;;;;17.42;70.47;94980.13;5075707;28;20205;-70
2023/06/19 05:22:42;;;;;;;5.90;5.40;;;;;;;17.44;71.38;94980.53;5075714;28;20255;-69
2023/06/19 05:25:11;;;;;;;5.40;4.88;;;;;;;17.45;71.72;94984.91;5075753;28;20185;-69
2023/06/19 05:27:39;;;;;;;4.40;4.10;;;;;;;17.43;72.32;94989.28;5074840;28;20212;-69
2023/06/19 05:30:08;;;;;;;4.85;4.53;;;;;;;17.45;72.16;94996.06;5109227;28;20231;-69
2023/06/19 05:32:35;;;;;;;4.63;4.28;;;;;;;17.46;72.20;94991.28;5115986;28;20203;-69
2023/06/19 05:35:04;;;;;;;5.45;4.15;;;;;;;17.48;72.35;95008.41;5115303;28;20203;-69
2023/06/19 05:37:34;;;;;;;4.70;4.30;;;;;;;17.50;72.51;95003.22;5115962;28;20206;-69
2023/06/19 05:40:05;;;;;;;4.68;4.30;;;;;;;17.52;72.34;95010.00;5115787;28;20199;-68
2023/06/19 05:42:34;;;;;;;5.57;4.65;;;;;;;17.56;71.61;95015.56;5115003;28;20203;-68
2023/06/19 05:45:02;;;;;;;4.97;4.55;;;;;;;17.59;71.65;95006.41;5114959;28;20254;-69
2023/06/19 05:47:31;;;;;;;4.40;4.00;;;;;;;17.62;71.01;95014.00;5114965;28;20195;-69
2023/06/19 05:49:59;;;;;;;4.75;4.35;;;;;;;17.66;70.76;95012.00;5114683;28;20650;-68
2023/06/19 05:52:27;;;;;;;4.90;4.50;;;;;;;17.68;70.94;95009.56;5115827;28;20188;-69
2023/06/19 05:54:54;;;;;;;4.47;4.07;;;;;;;17.70;71.58;95011.97;5115978;28;20204;-69
2023/06/19 05:57:23;;;;;;;4.68;4.38;;;;;;;17.71;71.80;95013.56;5115034;28;20259;-69
2023/06/19 05:59:52;;;;;;;5.13;4.72;;;;;;;17.73;71.32;95014.78;5115814;28;20212;-69
2023/06/19 06:02:21;;;;;;;5.28;4.47;;;;;;;17.75;71.09;95015.19;5115452;28;20278;-69
2023/06/19 06:04:49;;;;;;;5.13;4.63;;;;;;;17.77;70.78;95015.59;5115795;28;20191;-69
2023/06/19 06:07:17;;;;;;;5.28;4.88;;;;;;;17.82;70.47;95017.16;5115920;28;20191;-70
2023/06/19 06:09:45;;;;;;;5.40;5.00;;;;;;;17.86;70.67;95015.16;5115379;28;20176;-69
2023/06/19 06:12:13;;;;;;;6.32;5.28;;;;;;;17.90;70.88;95015.16;5115347;28;20614;-69
2023/06/19 06:14:43;;;;;;;5.18;4.70;;;;;;;17.93;70.84;95017.16;5115728;28;20199;-69
2023/06/19 06:17:11;;;;;;;4.80;4.20;;;;;;;17.99;71.05;95027.50;5115452;28;20194;-70
2023/06/19 06:19:39;;;;;;;5.78;4.13;;;;;;;18.03;71.20;95017.13;5115570;28;20222;-70
2023/06/19 06:22:10;;;;;;;4.82;4.22;;;;;;;18.06;71.55;95023.13;5114776;28;20199;-72
2023/06/19 06:24:38;;;;;;;5.65;5.15;;;;;;;18.09;71.73;95025.91;5115379;28;20615;-69
2023/06/19 06:27:09;;;;;;;5.05;4.65;;;;;;;18.15;71.34;95031.84;5114288;28;20283;-69
2023/06/19 06:29:37;;;;;;;4.82;4.43;;;;;;;18.22;71.10;95026.25;5114502;28;20238;-69
2023/06/19 06:32:08;;;;;;;4.68;4.28;;;;;;;18.30;69.56;95027.84;5114903;28;20203;-69
2023/06/19 06:34:36;;;;;;;4.43;4.13;;;;;;;18.31;68.90;95028.63;5114755;28;20199;-70
2023/06/19 06:37:04;;;;;;;4.47;4.07;;;;;;;18.30;68.52;95030.63;5115712;28;20196;-69
2023/06/19 06:39:34;;;;;;;4.65;4.25;;;;;;;18.28;68.35;95038.59;5114456;28;20221;-69
2023/06/19 06:42:03;;;;;;;4.97;4.40;;;;;;;18.29;68.67;95032.59;5115463;28;20188;-69
2023/06/19 06:44:31;;;;;;;4.78;4.38;;;;;;;18.32;68.37;95044.19;5114750;28;20195;-69
2023/06/19 06:46:59;;;;;;;4.85;4.35;;;;;;;18.32;68.56;95039.38;5114461;28;20252;-69
2023/06/19 06:49:29;;;;;;;4.40;4.07;;;;;;;18.32;66.89;95031.00;5114152;28;20200;-69
2023/06/19 06:51:57;;;;;;;5.45;4.90;;;;;;;18.34;67.66;95030.59;5115462;28;20181;-69
2023/06/19 06:54:25;;;;;;;5.10;4.47;;;;;;;18.36;67.12;95040.16;5118460;28;20286;-69
2023/06/19 06:56:56;;;;;;;4.38;3.97;;;;;;;18.38;66.71;95031.41;5119099;28;20219;-69
2023/06/19 06:59:25;;;;;;;4.55;4.15;;;;;;;18.40;66.85;95035.34;5118237;28;20192;-69
2023/06/19 07:01:53;;;;;;;4.88;4.35;;;;;;;18.41;67.93;95034.19;5119116;28;20188;-69
2023/06/19 07:04:21;;;;;;;4.50;4.20;;;;;;;18.44;66.49;95033.34;5119218;28;20188;-69
2023/06/19 07:06:49;;;;;;;4.93;4.43;;;;;;;18.49;65.95;95032.94;5118825;28;20203;-69
2023/06/19 07:09:21;;;;;;;4.97;4.57;;;;;;;18.52;65.22;95028.56;5117939;28;20252;-70
2023/06/19 07:11:49;;;;;;;4.43;4.07;;;;;;;18.53;65.83;95033.72;5118827;28;20209;-70
2023/06/19 07:14:17;;;;;;;5.47;4.88;;;;;;;18.57;66.88;95028.13;5118581;28;20188;-69
2023/06/19 07:16:46;;;;;;;4.90;4.50;;;;;;;18.62;66.06;95027.69;5118565;28;20176;-69
2023/06/19 07:19:13;;;;;;;5.07;4.00;;;;;;;18.63;65.94;95032.09;5118704;28;20219;-69
2023/06/19 07:21:42;;;;;;;4.75;4.20;;;;;;;18.66;67.21;95038.84;5118368;28;20200;-69
2023/06/19 07:24:11;;;;;;;4.40;4.00;;;;;;;18.67;67.05;95035.66;5117769;28;20206;-70
2023/06/19 07:26:39;;;;;;;4.60;4.28;;;;;;;18.70;66.02;95034.84;5117721;28;20188;-69
2023/06/19 07:29:08;;;;;;;4.80;4.30;;;;;;;18.72;64.97;95040.84;5117539;28;20242;-69
2023/06/19 07:31:36;;;;;;;4.78;4.38;;;;;;;18.76;65.57;95040.84;5118437;28;20200;-69
2023/06/19 07:34:04;;;;;;;5.13;4.72;;;;;;;18.81;64.93;95042.41;5118480;28;20203;-69
2023/06/19 07:36:35;;;;;;;6.30;4.20;;;;;;;18.82;63.34;95047.59;5118558;28;20191;-69
2023/06/19 07:39:03;;;;;;;5.30;4.22;;;;;;;18.84;63.67;95047.97;5117437;28;20300;-69
2023/06/19 07:41:35;;;;;;;4.97;4.20;;;;;;;18.88;64.33;95037.59;5118237;28;20227;-69
2023/06/19 07:44:03;;;;;;;4.60;4.13;;;;;;;18.90;62.24;95037.97;5117385;28;20199;-69
2023/06/19 07:46:31;;;;;;;5.68;5.18;;;;;;;18.92;63.62;95032.00;5117577;28;20200;-69
2023/06/19 07:48:59;;;;;;;5.65;4.38;;;;;;;18.97;63.63;95032.34;5117885;28;20565;-69
2023/06/19 07:51:27;;;;;;;5.25;4.70;;;;;;;18.99;63.97;95043.91;5117817;28;20176;-69
2023/06/19 07:53:55;;;;;;;5.38;4.88;;;;;;;19.00;63.52;95039.91;5118103;28;20184;-70
2023/06/19 07:56:23;;;;;;;5.95;5.38;;;;;;;19.05;62.76;95041.47;5116864;28;20195;-69
2023/06/19 07:58:53;;;;;;;5.45;4.95;;;;;;;19.09;61.98;95039.44;5117708;28;20195;-69
2023/06/19 08:01:21;;;;;;;5.35;4.65;;;;;;;19.13;61.68;95045.81;5116894;28;20215;-69
2023/06/19 08:03:49;;;;;;;4.68;4.28;;;;;;;19.20;62.92;95039.38;5116783;28;20248;-69
2023/06/19 08:06:18;;;;;;;4.95;4.55;;;;;;;19.25;61.72;95041.75;5117282;28;20192;-69
2023/06/19 08:08:46;;;;;;;4.97;4.63;;;;;;;19.29;61.69;95041.75;5117769;28;20188;-69
2023/06/19 08:11:14;;;;;;;4.95;4.55;;;;;;;19.35;60.54;95038.06;5116886;28;20195;-69
2023/06/19 08:13:42;;;;;;;4.70;4.20;;;;;;;19.40;58.83;95034.84;5118330;28;20176;-69
2023/06/19 08:16:12;;;;;;;4.70;4.25;;;;;;;19.46;58.80;95036.03;5117449;28;20183;-68
2023/06/19 08:18:42;;;;;;;4.57;4.18;;;;;;;19.46;56.15;95036.03;5116532;28;20192;-68
2023/06/19 08:21:11;;;;;;;6.57;4.70;;;;;;;19.46;56.55;95038.81;5117603;28;20204;-69
2023/06/19 08:23:39;;;;;;;5.28;4.78;;;;;;;19.47;56.25;95043.19;5116774;28;20210;-69
2023/06/19 08:26:07;;;;;;;4.80;4.32;;;;;;;19.46;57.37;95038.81;5117631;28;20593;-69
2023/06/19 08:28:35;;;;;;;5.82;4.25;;;;;;;19.49;58.45;95039.97;5116336;28;20235;-69
2023/06/19 08:31:04;;;;;;;5.28;4.55;;;;;;;19.54;58.03;95038.75;5117368;28;20278;-69
2023/06/19 08:33:36;;;;;;;6.50;4.40;;;;;;;19.59;57.08;95047.50;5116475;28;20223;-69
2023/06/19 08:36:04;;;;;;;4.55;4.15;;;;;;;19.61;55.57;95050.69;5116683;28;20714;-69
2023/06/19 08:38:32;;;;;;;4.65;4.32;;;;;;;19.61;55.61;95045.09;5116892;28;20207;-69
2023/06/19 08:41:00;;;;;;;4.78;4.38;;;;;;;19.61;54.51;95039.50;5116883;28;20653;-69
2023/06/19 08:43:28;;;;;;;4.78;4.30;;;;;;;19.65;55.52;95034.69;5117102;28;20596;-69
2023/06/19 08:46:08;;;;;;;5.00;4.53;;;;;;;19.75;54.88;95038.59;5117161;28;20195;-69
2023/06/19 08:48:38;;;;;;;4.45;4.05;;;;;;;19.82;57.63;95038.53;5116983;28;20591;-69
2023/06/19 08:51:06;;;;;;;5.13;4.60;;;;;;;19.88;54.12;95036.88;5115734;28;20630;-69
2023/06/19 08:53:36;;;;;;;4.40;4.10;;;;;;;20.00;56.17;95029.19;5115966;28;20202;-69
2023/06/19 08:56:05;;;;;;;5.00;4.45;;;;;;;20.07;56.40;95026.31;5116831;28;20188;-69
2023/06/19 08:58:36;;;;;;;4.35;4.03;;;;;;;20.09;55.16;95027.50;5116184;28;20196;-69
2023/06/19 09:01:04;;;;;;;4.80;4.30;;;;;;;20.15;51.33;95039.00;5116650;28;20204;-69
2023/06/19 09:03:35;;;;;;;4.72;4.32;;;;;;;20.19;52.82;95037.00;5116659;28;20191;-69
2023/06/19 09:06:07;;;;;;;4.55;4.13;;;;;;;20.35;56.01;95042.81;5116768;28;20184;-69
2023/06/19 09:08:36;;;;;;;4.93;4.53;;;;;;;20.38;56.52;95035.59;5116575;28;20227;-69
2023/06/19 09:11:05;;;;;;;5.47;4.93;;;;;;;20.41;54.62;95035.53;5116359;28;20234;-69
2023/06/19 09:13:33;;;;;;;5.57;4.70;;;;;;;20.51;53.71;95035.84;5115502;28;20214;-69
2023/06/19 09:16:03;;;;;;;4.40;4.00;;;;;;;20.66;51.64;95037.28;5116355;28;20188;-69
2023/06/19 09:18:33;;;;;;;4.30;3.90;;;;;;;20.68;50.14;95037.66;5116108;28;20249;-69
2023/06/19 09:21:01;;;;;;;4.60;4.25;;;;;;;20.67;50.01;95034.06;5116287;28;20273;-69
2023/06/19 09:23:31;;;;;;;4.53;3.95;;;;;;;20.81;55.75;95035.09;5115486;28;20203;-69
2023/06/19 09:25:59;;;;;;;5.10;4.70;;;;;;;20.93;51.68;95042.94;5116349;28;20210;-69
2023/06/19 09:28:28;;;;;;;5.25;4.75;;;;;;;21.00;53.79;95031.63;5115096;28;20206;-69
2023/06/19 09:30:58;;;;;;;4.90;4.45;;;;;;;21.10;54.84;95030.69;5115443;28;20191;-69
2023/06/19 09:33:28;;;;;;;4.85;4.30;;;;;;;21.22;53.41;95032.13;5114810;28;20260;-69
2023/06/19 09:35:57;;;;;;;6.18;4.80;;;;;;;21.30;52.82;95024.41;5116079;28;20596;-69
2023/06/19 09:38:26;;;;;;;6.13;4.25;;;;;;;21.44;53.22;95031.84;5116159;28;20190;-69
2023/06/19 09:41:02;;;;;;;5.05;4.63;;;;;;;21.52;54.72;95036.13;5116231;28;20235;-69
2023/06/19 09:43:35;;;;;;;5.07;4.68;;;;;;;21.63;55.13;95037.53;5114836;28;20196;-69
2023/06/19 09:46:03;;;;;;;5.88;4.35;;;;;;;21.77;55.14;95035.72;5116136;28;20265;-69
2023/06/19 09:48:34;;;;;;;5.00;4.32;;;;;;;21.76;49.82;95031.34;5114870;28;20207;-69
2023/06/19 09:51:14;;;;;;;4.88;4.38;;;;;;;21.81;52.15;95022.41;5115309;28;20211;-69
2023/06/19 09:53:44;;;;;;;4.70;4.30;;;;;;;21.93;52.12;95030.22;5115886;28;20307;-69
2023/06/19 09:56:15;;;;;;;4.53;4.22;;;;;;;22.04;50.85;95030.03;5116012;28;20184;-69
2023/06/19 09:58:43;;;;;;;5.05;4.55;;;;;;;;;;5115905;28;20253;-69
2023/06/19 10:01:12;;;;;;;4.60;4.10;;;;;;;22.14;49.31;95017.03;5114924;28;20719;-69
2023/06/19 10:03:41;;;;;;;4.30;4.00;;;;;;;22.20;49.77;95015.34;5116078;28;20180;-69
2023/06/19 10:06:14;;;;;;;4.65;4.25;;;;;;;22.22;47.84;95022.13;5115714;28;20660;-69
2023/06/19 10:08:45;;;;;;;4.30;3.90;;;;;;;22.25;48.18;95007.19;5115785;28;20204;-69
2023/06/19 10:11:14;;;;;;;4.60;4.25;;;;;;;22.39;50.26;95002.53;5114932;28;20207;-70
2023/06/19 10:13:43;;;;;;;4.55;4.15;;;;;;;22.52;48.62;95011.91;5115136;28;20202;-69
2023/06/19 10:16:21;;;;;;;4.68;4.28;;;;;;;22.62;47.20;95002.47;5115108;28;20192;-69
2023/06/19 10:18:50;;;;;;;4.65;4.25;;;;;;;22.65;46.28;94998.00;5115446;28;20203;-69
2023/06/19 10:21:18;;;;;;;8.07;6.47;;;;;;;22.67;47.04;94999.16;5114551;28;20218;-69
2023/06/19 10:23:57;;;;;;;5.05;4.55;;;;;;;22.77;49.35;95003.75;5115099;28;20188;-69
2023/06/19 10:26:35;;;;;;;4.70;4.22;;;;;;;22.85;47.69;94992.38;5114795;28;20546;-69
2023/06/19 10:29:17;;;;;;;4.95;4.55;;;;;;;22.97;50.28;94998.13;5119129;28;20311;-70
2023/06/19 10:31:45;;;;;;;4.63;4.18;;;;;;;23.04;47.84;94995.16;5119792;28;20221;-69
2023/06/19 10:34:13;;;;;;;4.57;4.18;;;;;;;23.14;46.40;94996.16;5119363;28;20196;-69
2023/06/19 10:36:41;;;;;;;5.80;4.80;;;;;;;23.19;48.73;94983.59;5118954;28;20196;-69
2023/06/19 10:39:10;;;;;;;4.80;4.40;;;;;;;23.26;51.18;94991.88;5118740;28;20199;-69
2023/06/19 10:41:43;;;;;;;4.43;4.13;;;;;;;23.29;50.13;94988.97;5119317;27;20231;-69
2023/06/19 10:44:14;;;;;;;4.78;4.38;;;;;;;23.30;48.29;94979.28;5119111;28;20270;-69
2023/06/19 10:46:43;;;;;;;4.93;4.53;;;;;;;23.36;48.99;94978.78;5119576;28;20274;-69
2023/06/19 10:49:13;;;;;;;4.65;4.25;;;;;;;23.44;50.20;94988.63;5119604;28;20204;-69
2023/06/19 10:51:43;;;;;;;5.35;4.70;;;;;;;23.51;48.89;94983.63;5119576;28;20190;-69
2023/06/19 10:54:11;;;;;;;4.78;4.40;;;;;;;23.60;48.20;94985.81;5118895;28;20200;-69
2023/06/19 10:56:44;;;;;;;5.25;4.43;;;;;;;23.70;45.04;94986.81;5118944;28;20569;-70
2023/06/19 10:59:13;;;;;;;4.95;4.45;;;;;;;23.65;46.23;94979.66;5118399;28;20191;-69
2023/06/19 11:01:42;;;;;;;5.20;4.45;;;;;;;23.63;47.82;94979.31;5118899;28;20204;-70
2023/06/19 11:04:12;;;;;;;4.60;4.20;;;;;;;23.68;48.50;94980.84;5118511;28;20199;-69
2023/06/19 11:06:40;;;;;;;5.68;4.43;;;;;;;23.73;48.86;94974.69;5118759;28;20199;-69
2023/06/19 11:09:10;;;;;;;4.78;4.20;;;;;;;23.81;48.80;94972.47;5118396;28;20207;-69
2023/06/19 11:11:38;;;;;;;4.63;4.22;;;;;;;23.81;49.98;94973.25;5119107;28;20195;-69
2023/06/19 11:14:08;;;;;;;4.80;4.40;;;;;;;23.83;48.72;94972.84;5119334;28;20195;-69
2023/06/19 11:16:39;;;;;;;4.75;4.35;;;;;;;23.88;48.33;94963.84;5118026;28;20615;-69
2023/06/19 11:19:08;;;;;;;4.80;4.45;;;;;;;23.93;48.70;94964.09;5118183;28;20268;-69
2023/06/19 11:21:38;;;;;;;4.72;4.32;;;;;;;24.04;49.12;94969.47;5119068;28;20235;-69
2023/06/19 11:24:11;;;;;;;4.82;4.43;;;;;;;24.04;47.51;94969.47;5117951;28;20542;-69
2023/06/19 11:26:39;;;;;;;5.22;4.72;;;;;;;24.08;47.57;94964.53;5118977;28;20188;-69
2023/06/19 11:29:20;;;;;;;5.15;4.60;;;;;;;24.19;47.93;94965.03;5117175;28;20228;-69
2023/06/19 11:31:49;;;;;;;5.00;4.60;;;;;;;24.05;45.74;94961.78;5118813;28;20180;-69
2023/06/19 11:34:17;;;;;;;5.22;4.72;;;;;;;23.94;48.35;94962.88;5118669;28;20200;-69
2023/06/19 11:36:45;;;;;;;4.90;4.50;;;;;;;23.98;50.06;94965.59;5117760;28;20195;-69
2023/06/19 11:39:15;;;;;;;5.00;4.60;;;;;;;24.13;48.82;94960.38;5117504;28;20211;-69
2023/06/19 11:41:45;;;;;;;4.93;4.50;;;;;;;24.20;47.44;94954.53;5101438;28;20208;-69
2023/06/19 11:44:13;;;;;;;4.75;4.35;;;;;;;24.33;46.81;94946.13;5117789;28;20261;-69